sensor_id;sensor_type;location;lat;lon;timestamp;P1;durP1;ratioP1;P2;durP2;ratioP2
65096;SDS011;51686;46.758;4.356;2022-11-10T00:02:17;9.85;;;4.90;;
65096;SDS011;51686;46.758;4.356;2022-11-10T00:05:04;9.45;;;4.70;;
65096;SDS011;51686;46.758;4.356;2022-11-10T00:07:53;9.68;;;5.10;;
65096;SDS011;51686;46.758;4.356;2022-11-10T00:10:40;9.98;;;5.13;;
65096;SDS011;51686;46.758;4.356;2022-11-10T00:13:47;8.88;;;4.28;;
65096;SDS011;51686;46.758;4.356;2022-11-10T00:16:53;9.02;;;4.78;;
65096;SDS011;51686;46.758;4.356;2022-11-10T00:22:39;9.25;;;4.43;;
65096;SDS011;51686;46.758;4.356;2022-11-10T00:25:26;9.48;;;4.80;;
65096;SDS011;51686;46.758;4.356;2022-11-10T00:28:13;9.05;;;4.30;;
65096;SDS011;51686;46.758;4.356;2022-11-10T00:31:03;9.52;;;4.55;;
65096;SDS011;51686;46.758;4.356;2022-11-10T00:33:51;9.60;;;4.53;;
65096;SDS011;51686;46.758;4.356;2022-11-10T00:36:38;10.63;;;4.80;;
65096;SDS011;51686;46.758;4.356;2022-11-10T00:39:27;9.23;;;4.47;;
65096;SDS011;51686;46.758;4.356;2022-11-10T00:42:17;9.60;;;4.60;;
65096;SDS011;51686;46.758;4.356;2022-11-10T00:45:04;9.70;;;4.80;;
65096;SDS011;51686;46.758;4.356;2022-11-10T00:47:52;9.18;;;4.25;;
65096;SDS011;51686;46.758;4.356;2022-11-10T00:50:38;8.52;;;3.97;;
65096;SDS011;51686;46.758;4.356;2022-11-10T00:53:25;7.72;;;3.58;;
65096;SDS011;51686;46.758;4.356;2022-11-10T00:56:12;8.50;;;4.10;;
65096;SDS011;51686;46.758;4.356;2022-11-10T00:58:59;8.70;;;4.22;;
65096;SDS011;51686;46.758;4.356;2022-11-10T01:01:46;8.48;;;3.90;;
65096;SDS011;51686;46.758;4.356;2022-11-10T01:04:33;7.85;;;3.58;;
65096;SDS011;51686;46.758;4.356;2022-11-10T01:07:22;8.20;;;3.80;;
65096;SDS011;51686;46.758;4.356;2022-11-10T01:10:09;8.43;;;3.90;;
65096;SDS011;51686;46.758;4.356;2022-11-10T01:12:56;8.35;;;3.83;;
65096;SDS011;51686;46.758;4.356;2022-11-10T01:15:43;8.20;;;3.58;;
65096;SDS011;51686;46.758;4.356;2022-11-10T01:18:29;8.77;;;3.90;;
65096;SDS011;51686;46.758;4.356;2022-11-10T01:21:16;7.40;;;3.20;;
65096;SDS011;51686;46.758;4.356;2022-11-10T01:24:04;7.40;;;3.55;;
65096;SDS011;51686;46.758;4.356;2022-11-10T01:26:51;8.15;;;3.60;;
65096;SDS011;51686;46.758;4.356;2022-11-10T01:29:40;7.95;;;3.88;;
65096;SDS011;51686;46.758;4.356;2022-11-10T01:32:27;7.93;;;3.72;;
65096;SDS011;51686;46.758;4.356;2022-11-10T01:35:17;7.50;;;3.45;;
65096;SDS011;51686;46.758;4.356;2022-11-10T01:38:06;8.50;;;3.78;;
65096;SDS011;51686;46.758;4.356;2022-11-10T01:40:53;8.50;;;3.80;;
65096;SDS011;51686;46.758;4.356;2022-11-10T01:43:43;7.82;;;3.83;;
65096;SDS011;51686;46.758;4.356;2022-11-10T01:46:29;7.90;;;3.88;;
65096;SDS011;51686;46.758;4.356;2022-11-10T01:49:18;8.10;;;3.83;;
65096;SDS011;51686;46.758;4.356;2022-11-10T01:52:09;8.35;;;3.70;;
65096;SDS011;51686;46.758;4.356;2022-11-10T01:55:00;7.82;;;3.38;;
65096;SDS011;51686;46.758;4.356;2022-11-10T01:57:49;7.68;;;3.55;;
65096;SDS011;51686;46.758;4.356;2022-11-10T02:00:37;8.38;;;4.03;;
65096;SDS011;51686;46.758;4.356;2022-11-10T02:06:37;8.32;;;3.88;;
65096;SDS011;51686;46.758;4.356;2022-11-10T02:09:26;7.90;;;3.60;;
65096;SDS011;51686;46.758;4.356;2022-11-10T02:15:22;7.32;;;3.33;;
65096;SDS011;51686;46.758;4.356;2022-11-10T02:18:09;7.95;;;3.70;;
65096;SDS011;51686;46.758;4.356;2022-11-10T02:20:56;7.55;;;3.40;;
65096;SDS011;51686;46.758;4.356;2022-11-10T02:23:44;7.68;;;3.50;;
65096;SDS011;51686;46.758;4.356;2022-11-10T02:26:33;7.60;;;3.60;;
65096;SDS011;51686;46.758;4.356;2022-11-10T02:29:23;8.70;;;4.00;;
65096;SDS011;51686;46.758;4.356;2022-11-10T02:32:11;8.68;;;4.15;;
65096;SDS011;51686;46.758;4.356;2022-11-10T02:35:00;8.20;;;3.75;;
65096;SDS011;51686;46.758;4.356;2022-11-10T02:37:47;8.30;;;3.53;;
65096;SDS011;51686;46.758;4.356;2022-11-10T02:40:37;8.10;;;3.92;;
65096;SDS011;51686;46.758;4.356;2022-11-10T02:43:26;7.70;;;3.60;;
65096;SDS011;51686;46.758;4.356;2022-11-10T02:46:13;8.38;;;3.80;;
65096;SDS011;51686;46.758;4.356;2022-11-10T02:49:00;7.88;;;3.63;;
65096;SDS011;51686;46.758;4.356;2022-11-10T02:51:47;7.90;;;3.80;;
65096;SDS011;51686;46.758;4.356;2022-11-10T02:54:34;9.25;;;3.95;;
65096;SDS011;51686;46.758;4.356;2022-11-10T02:57:20;8.45;;;3.80;;
65096;SDS011;51686;46.758;4.356;2022-11-10T03:00:07;8.73;;;4.07;;
65096;SDS011;51686;46.758;4.356;2022-11-10T03:02:58;9.68;;;3.97;;
65096;SDS011;51686;46.758;4.356;2022-11-10T03:05:47;9.25;;;4.72;;
65096;SDS011;51686;46.758;4.356;2022-11-10T03:08:34;8.45;;;3.92;;
65096;SDS011;51686;46.758;4.356;2022-11-10T03:11:22;9.47;;;3.90;;
65096;SDS011;51686;46.758;4.356;2022-11-10T03:14:16;8.40;;;3.83;;
65096;SDS011;51686;46.758;4.356;2022-11-10T03:17:03;8.10;;;3.67;;
65096;SDS011;51686;46.758;4.356;2022-11-10T03:19:50;9.52;;;4.45;;
65096;SDS011;51686;46.758;4.356;2022-11-10T03:22:39;8.57;;;4.13;;
65096;SDS011;51686;46.758;4.356;2022-11-10T03:25:26;8.57;;;4.10;;
65096;SDS011;51686;46.758;4.356;2022-11-10T03:28:13;8.18;;;3.85;;
65096;SDS011;51686;46.758;4.356;2022-11-10T03:31:00;8.10;;;3.58;;
65096;SDS011;51686;46.758;4.356;2022-11-10T03:33:47;9.73;;;4.13;;
65096;SDS011;51686;46.758;4.356;2022-11-10T03:36:34;7.57;;;3.58;;
65096;SDS011;51686;46.758;4.356;2022-11-10T03:39:23;8.40;;;3.60;;
65096;SDS011;51686;46.758;4.356;2022-11-10T03:42:10;9.02;;;4.07;;
65096;SDS011;51686;46.758;4.356;2022-11-10T03:44:59;7.50;;;3.55;;
65096;SDS011;51686;46.758;4.356;2022-11-10T03:47:48;8.25;;;3.72;;
65096;SDS011;51686;46.758;4.356;2022-11-10T03:50:38;8.00;;;3.70;;
65096;SDS011;51686;46.758;4.356;2022-11-10T03:53:24;9.30;;;4.15;;
65096;SDS011;51686;46.758;4.356;2022-11-10T03:56:11;9.80;;;4.45;;
65096;SDS011;51686;46.758;4.356;2022-11-10T03:58:58;8.70;;;4.13;;
65096;SDS011;51686;46.758;4.356;2022-11-10T04:01:47;8.48;;;4.07;;
65096;SDS011;51686;46.758;4.356;2022-11-10T04:04:34;9.10;;;4.30;;
65096;SDS011;51686;46.758;4.356;2022-11-10T04:07:39;9.57;;;3.97;;
65096;SDS011;51686;46.758;4.356;2022-11-10T04:10:50;8.93;;;4.33;;
65096;SDS011;51686;46.758;4.356;2022-11-10T04:13:41;8.30;;;3.92;;
65096;SDS011;51686;46.758;4.356;2022-11-10T04:16:47;8.05;;;4.07;;
65096;SDS011;51686;46.758;4.356;2022-11-10T04:19:37;8.82;;;4.25;;
65096;SDS011;51686;46.758;4.356;2022-11-10T04:22:29;8.95;;;4.35;;
65096;SDS011;51686;46.758;4.356;2022-11-10T04:25:35;8.43;;;3.92;;
65096;SDS011;51686;46.758;4.356;2022-11-10T04:28:42;9.40;;;4.13;;
65096;SDS011;51686;46.758;4.356;2022-11-10T04:31:30;8.90;;;4.20;;
65096;SDS011;51686;46.758;4.356;2022-11-10T04:34:18;9.20;;;4.10;;
65096;SDS011;51686;46.758;4.356;2022-11-10T04:37:05;9.00;;;4.22;;
65096;SDS011;51686;46.758;4.356;2022-11-10T04:39:52;9.20;;;4.43;;
65096;SDS011;51686;46.758;4.356;2022-11-10T04:42:41;8.60;;;4.35;;
65096;SDS011;51686;46.758;4.356;2022-11-10T04:45:31;9.02;;;4.50;;
65096;SDS011;51686;46.758;4.356;2022-11-10T04:48:22;8.55;;;4.18;;
65096;SDS011;51686;46.758;4.356;2022-11-10T04:51:10;8.40;;;4.05;;
65096;SDS011;51686;46.758;4.356;2022-11-10T04:53:57;9.38;;;4.22;;
65096;SDS011;51686;46.758;4.356;2022-11-10T04:56:44;8.90;;;4.07;;
65096;SDS011;51686;46.758;4.356;2022-11-10T04:59:31;8.50;;;4.20;;
65096;SDS011;51686;46.758;4.356;2022-11-10T05:02:17;8.90;;;4.70;;
65096;SDS011;51686;46.758;4.356;2022-11-10T05:05:04;9.23;;;4.50;;
65096;SDS011;51686;46.758;4.356;2022-11-10T05:07:51;9.27;;;4.47;;
65096;SDS011;51686;46.758;4.356;2022-11-10T05:10:38;8.57;;;4.28;;
65096;SDS011;51686;46.758;4.356;2022-11-10T05:13:25;9.20;;;4.53;;
65096;SDS011;51686;46.758;4.356;2022-11-10T05:16:12;9.18;;;4.60;;
65096;SDS011;51686;46.758;4.356;2022-11-10T05:18:59;9.07;;;4.53;;
65096;SDS011;51686;46.758;4.356;2022-11-10T05:21:45;9.23;;;4.63;;
65096;SDS011;51686;46.758;4.356;2022-11-10T05:24:32;9.95;;;4.97;;
65096;SDS011;51686;46.758;4.356;2022-11-10T05:27:19;9.57;;;4.90;;
65096;SDS011;51686;46.758;4.356;2022-11-10T05:30:06;8.88;;;4.63;;
65096;SDS011;51686;46.758;4.356;2022-11-10T05:33:04;9.00;;;4.40;;
65096;SDS011;51686;46.758;4.356;2022-11-10T05:35:51;8.52;;;4.13;;
65096;SDS011;51686;46.758;4.356;2022-11-10T05:38:38;8.35;;;4.05;;
65096;SDS011;51686;46.758;4.356;2022-11-10T05:41:29;8.45;;;4.18;;
65096;SDS011;51686;46.758;4.356;2022-11-10T05:44:16;8.43;;;4.40;;
65096;SDS011;51686;46.758;4.356;2022-11-10T05:47:03;9.05;;;4.65;;
65096;SDS011;51686;46.758;4.356;2022-11-10T05:49:49;8.02;;;3.85;;
65096;SDS011;51686;46.758;4.356;2022-11-10T05:52:44;8.60;;;4.22;;
65096;SDS011;51686;46.758;4.356;2022-11-10T05:58:22;8.23;;;4.03;;
65096;SDS011;51686;46.758;4.356;2022-11-10T06:01:09;8.15;;;4.00;;
65096;SDS011;51686;46.758;4.356;2022-11-10T06:03:56;8.13;;;4.22;;
65096;SDS011;51686;46.758;4.356;2022-11-10T06:06:43;8.40;;;3.92;;
65096;SDS011;51686;46.758;4.356;2022-11-10T06:09:39;9.00;;;4.22;;
65096;SDS011;51686;46.758;4.356;2022-11-10T06:12:32;7.75;;;3.83;;
65096;SDS011;51686;46.758;4.356;2022-11-10T06:15:27;8.32;;;3.70;;
65096;SDS011;51686;46.758;4.356;2022-11-10T06:18:14;7.65;;;3.65;;
65096;SDS011;51686;46.758;4.356;2022-11-10T06:21:00;7.15;;;3.47;;
65096;SDS011;51686;46.758;4.356;2022-11-10T06:23:47;8.07;;;3.65;;
65096;SDS011;51686;46.758;4.356;2022-11-10T06:26:34;7.50;;;3.92;;
65096;SDS011;51686;46.758;4.356;2022-11-10T06:29:21;7.30;;;3.50;;
65096;SDS011;51686;46.758;4.356;2022-11-10T06:32:12;7.28;;;3.40;;
65096;SDS011;51686;46.758;4.356;2022-11-10T06:35:03;7.47;;;3.47;;
65096;SDS011;51686;46.758;4.356;2022-11-10T06:40:47;6.00;;;2.95;;
65096;SDS011;51686;46.758;4.356;2022-11-10T06:43:34;8.13;;;3.33;;
65096;SDS011;51686;46.758;4.356;2022-11-10T06:46:21;7.30;;;3.60;;
65096;SDS011;51686;46.758;4.356;2022-11-10T06:49:08;7.60;;;4.10;;
65096;SDS011;51686;46.758;4.356;2022-11-10T06:51:54;6.90;;;3.20;;
65096;SDS011;51686;46.758;4.356;2022-11-10T06:54:41;8.43;;;3.67;;
65096;SDS011;51686;46.758;4.356;2022-11-10T06:57:28;8.05;;;3.47;;
65096;SDS011;51686;46.758;4.356;2022-11-10T07:00:17;7.10;;;3.50;;
65096;SDS011;51686;46.758;4.356;2022-11-10T07:03:05;6.72;;;3.33;;
65096;SDS011;51686;46.758;4.356;2022-11-10T07:05:53;7.57;;;3.63;;
65096;SDS011;51686;46.758;4.356;2022-11-10T07:08:40;6.85;;;3.40;;
65096;SDS011;51686;46.758;4.356;2022-11-10T07:11:26;6.88;;;3.40;;
65096;SDS011;51686;46.758;4.356;2022-11-10T07:14:13;7.03;;;3.40;;
65096;SDS011;51686;46.758;4.356;2022-11-10T07:17:00;6.80;;;3.33;;
65096;SDS011;51686;46.758;4.356;2022-11-10T07:19:47;7.00;;;3.30;;
65096;SDS011;51686;46.758;4.356;2022-11-10T07:22:34;6.22;;;3.17;;
65096;SDS011;51686;46.758;4.356;2022-11-10T07:25:29;6.75;;;3.30;;
65096;SDS011;51686;46.758;4.356;2022-11-10T07:28:29;7.40;;;3.38;;
65096;SDS011;51686;46.758;4.356;2022-11-10T07:31:19;5.80;;;2.85;;
65096;SDS011;51686;46.758;4.356;2022-11-10T07:34:08;6.25;;;2.90;;
65096;SDS011;51686;46.758;4.356;2022-11-10T07:36:59;5.85;;;2.90;;
65096;SDS011;51686;46.758;4.356;2022-11-10T07:39:49;5.95;;;2.88;;
65096;SDS011;51686;46.758;4.356;2022-11-10T07:43:01;5.63;;;2.70;;
65096;SDS011;51686;46.758;4.356;2022-11-10T07:45:56;6.55;;;3.15;;
65096;SDS011;51686;46.758;4.356;2022-11-10T07:48:49;5.78;;;2.88;;
65096;SDS011;51686;46.758;4.356;2022-11-10T07:51:52;6.28;;;2.80;;
65096;SDS011;51686;46.758;4.356;2022-11-10T07:55:02;5.85;;;2.60;;
65096;SDS011;51686;46.758;4.356;2022-11-10T07:58:06;5.47;;;2.50;;
65096;SDS011;51686;46.758;4.356;2022-11-10T08:01:24;5.50;;;2.47;;
65096;SDS011;51686;46.758;4.356;2022-11-10T08:04:16;5.38;;;2.50;;
65096;SDS011;51686;46.758;4.356;2022-11-10T08:07:03;4.03;;;2.10;;
65096;SDS011;51686;46.758;4.356;2022-11-10T08:13:24;6.60;;;2.95;;
65096;SDS011;51686;46.758;4.356;2022-11-10T08:16:31;6.50;;;3.28;;
65096;SDS011;51686;46.758;4.356;2022-11-10T08:19:32;6.13;;;2.90;;
65096;SDS011;51686;46.758;4.356;2022-11-10T08:22:19;6.72;;;3.00;;
65096;SDS011;51686;46.758;4.356;2022-11-10T08:25:09;6.82;;;3.10;;
65096;SDS011;51686;46.758;4.356;2022-11-10T08:28:18;5.85;;;2.55;;
65096;SDS011;51686;46.758;4.356;2022-11-10T08:31:05;4.68;;;2.35;;
65096;SDS011;51686;46.758;4.356;2022-11-10T08:33:55;5.30;;;2.38;;
65096;SDS011;51686;46.758;4.356;2022-11-10T08:36:42;5.85;;;2.72;;
65096;SDS011;51686;46.758;4.356;2022-11-10T08:39:29;4.63;;;2.30;;
65096;SDS011;51686;46.758;4.356;2022-11-10T08:42:25;5.30;;;2.25;;
65096;SDS011;51686;46.758;4.356;2022-11-10T08:45:12;4.75;;;2.25;;
65096;SDS011;51686;46.758;4.356;2022-11-10T08:48:00;6.97;;;2.97;;
65096;SDS011;51686;46.758;4.356;2022-11-10T08:50:48;6.70;;;3.10;;
65096;SDS011;51686;46.758;4.356;2022-11-10T08:53:35;5.50;;;2.60;;
65096;SDS011;51686;46.758;4.356;2022-11-10T08:56:22;7.22;;;3.17;;
65096;SDS011;51686;46.758;4.356;2022-11-10T08:59:12;4.88;;;2.40;;
65096;SDS011;51686;46.758;4.356;2022-11-10T09:01:59;6.03;;;2.60;;
65096;SDS011;51686;46.758;4.356;2022-11-10T09:04:47;5.63;;;2.40;;
65096;SDS011;51686;46.758;4.356;2022-11-10T09:07:44;6.60;;;2.70;;
65096;SDS011;51686;46.758;4.356;2022-11-10T09:10:38;5.25;;;2.63;;
65096;SDS011;51686;46.758;4.356;2022-11-10T09:13:29;7.45;;;2.60;;
65096;SDS011;51686;46.758;4.356;2022-11-10T09:16:19;6.30;;;2.60;;
65096;SDS011;51686;46.758;4.356;2022-11-10T09:19:09;6.40;;;2.90;;
65096;SDS011;51686;46.758;4.356;2022-11-10T09:22:10;6.00;;;2.63;;
65096;SDS011;51686;46.758;4.356;2022-11-10T09:25:19;7.87;;;3.00;;
65096;SDS011;51686;46.758;4.356;2022-11-10T09:32:25;5.85;;;2.67;;
65096;SDS011;51686;46.758;4.356;2022-11-10T09:38:36;5.05;;;2.38;;
65096;SDS011;51686;46.758;4.356;2022-11-10T09:42:04;6.13;;;2.70;;
65096;SDS011;51686;46.758;4.356;2022-11-10T09:45:41;5.25;;;2.30;;
65096;SDS011;51686;46.758;4.356;2022-11-10T09:48:51;5.63;;;2.58;;
65096;SDS011;51686;46.758;4.356;2022-11-10T09:52:14;6.43;;;2.70;;
65096;SDS011;51686;46.758;4.356;2022-11-10T09:55:44;5.05;;;2.30;;
65096;SDS011;51686;46.758;4.356;2022-11-10T10:14:05;6.03;;;2.33;;
65096;SDS011;51686;46.758;4.356;2022-11-10T10:17:36;6.82;;;2.40;;
65096;SDS011;51686;46.758;4.356;2022-11-10T10:24:18;5.28;;;2.15;;
65096;SDS011;51686;46.758;4.356;2022-11-10T10:27:40;4.68;;;1.90;;
65096;SDS011;51686;46.758;4.356;2022-11-10T10:31:33;5.53;;;2.10;;
65096;SDS011;51686;46.758;4.356;2022-11-10T10:35:05;5.53;;;2.22;;
65096;SDS011;51686;46.758;4.356;2022-11-10T10:38:15;6.17;;;2.20;;
65096;SDS011;51686;46.758;4.356;2022-11-10T10:41:29;5.38;;;1.98;;
65096;SDS011;51686;46.758;4.356;2022-11-10T10:44:24;3.88;;;2.05;;
65096;SDS011;51686;46.758;4.356;2022-11-10T10:47:25;5.75;;;2.30;;
65096;SDS011;51686;46.758;4.356;2022-11-10T11:10:28;4.30;;;2.00;;
65096;SDS011;51686;46.758;4.356;2022-11-10T11:34:52;5.75;;;2.50;;
65096;SDS011;51686;46.758;4.356;2022-11-10T11:47:48;6.72;;;2.33;;
65096;SDS011;51686;46.758;4.356;2022-11-10T11:51:15;6.90;;;2.60;;
65096;SDS011;51686;46.758;4.356;2022-11-10T12:11:19;6.20;;;2.30;;
65096;SDS011;51686;46.758;4.356;2022-11-10T12:22:34;5.90;;;2.10;;
65096;SDS011;51686;46.758;4.356;2022-11-10T12:37:00;6.53;;;2.10;;
65096;SDS011;51686;46.758;4.356;2022-11-10T12:40:40;4.10;;;1.90;;
65096;SDS011;51686;46.758;4.356;2022-11-10T12:43:56;4.85;;;1.98;;
65096;SDS011;51686;46.758;4.356;2022-11-10T12:47:41;4.47;;;2.00;;
65096;SDS011;51686;46.758;4.356;2022-11-10T12:50:58;4.90;;;1.88;;
65096;SDS011;51686;46.758;4.356;2022-11-10T12:54:28;6.38;;;2.13;;
65096;SDS011;51686;46.758;4.356;2022-11-10T12:58:12;5.00;;;1.90;;
65096;SDS011;51686;46.758;4.356;2022-11-10T13:01:23;5.05;;;2.13;;
65096;SDS011;51686;46.758;4.356;2022-11-10T13:04:44;4.80;;;1.70;;
65096;SDS011;51686;46.758;4.356;2022-11-10T13:08:17;6.00;;;1.85;;
65096;SDS011;51686;46.758;4.356;2022-11-10T13:11:30;4.13;;;1.65;;
65096;SDS011;51686;46.758;4.356;2022-11-10T13:14:30;4.53;;;1.70;;
65096;SDS011;51686;46.758;4.356;2022-11-10T13:34:31;4.00;;;1.75;;
65096;SDS011;51686;46.758;4.356;2022-11-10T13:40:42;5.28;;;1.80;;
65096;SDS011;51686;46.758;4.356;2022-11-10T13:43:56;3.83;;;1.50;;
65096;SDS011;51686;46.758;4.356;2022-11-10T13:54:40;5.22;;;1.83;;
65096;SDS011;51686;46.758;4.356;2022-11-10T14:07:44;4.60;;;1.70;;
65096;SDS011;51686;46.758;4.356;2022-11-10T14:11:02;4.90;;;1.80;;
65096;SDS011;51686;46.758;4.356;2022-11-10T14:14:46;3.88;;;1.50;;
65096;SDS011;51686;46.758;4.356;2022-11-10T14:21:45;4.13;;;1.70;;
65096;SDS011;51686;46.758;4.356;2022-11-10T14:25:33;4.65;;;1.70;;
65096;SDS011;51686;46.758;4.356;2022-11-10T14:28:54;4.22;;;1.60;;
65096;SDS011;51686;46.758;4.356;2022-11-10T14:31:57;2.55;;;1.52;;
65096;SDS011;51686;46.758;4.356;2022-11-10T14:34:53;2.85;;;1.73;;
65096;SDS011;51686;46.758;4.356;2022-11-10T14:38:22;3.60;;;1.53;;
65096;SDS011;51686;46.758;4.356;2022-11-10T14:41:20;2.78;;;1.40;;
65096;SDS011;51686;46.758;4.356;2022-11-10T14:48:11;5.15;;;1.52;;
65096;SDS011;51686;46.758;4.356;2022-11-10T14:51:23;3.83;;;2.28;;
65096;SDS011;51686;46.758;4.356;2022-11-10T14:54:20;5.90;;;1.90;;
65096;SDS011;51686;46.758;4.356;2022-11-10T14:57:14;4.28;;;1.65;;
65096;SDS011;51686;46.758;4.356;2022-11-10T15:00:06;3.65;;;1.60;;
65096;SDS011;51686;46.758;4.356;2022-11-10T15:03:13;4.70;;;2.20;;
65096;SDS011;51686;46.758;4.356;2022-11-10T15:06:04;6.60;;;1.85;;
65096;SDS011;51686;46.758;4.356;2022-11-10T15:08:56;2.58;;;1.52;;
65096;SDS011;51686;46.758;4.356;2022-11-10T15:11:51;3.95;;;1.70;;
65096;SDS011;51686;46.758;4.356;2022-11-10T15:15:20;5.28;;;1.83;;
65096;SDS011;51686;46.758;4.356;2022-11-10T15:18:25;4.30;;;1.63;;
65096;SDS011;51686;46.758;4.356;2022-11-10T15:21:21;3.88;;;1.65;;
65096;SDS011;51686;46.758;4.356;2022-11-10T15:27:13;3.72;;;1.60;;
65096;SDS011;51686;46.758;4.356;2022-11-10T15:30:23;3.63;;;1.58;;
65096;SDS011;51686;46.758;4.356;2022-11-10T15:33:14;4.78;;;1.85;;
65096;SDS011;51686;46.758;4.356;2022-11-10T15:36:16;4.20;;;1.80;;
65096;SDS011;51686;46.758;4.356;2022-11-10T15:39:29;5.13;;;1.65;;
65096;SDS011;51686;46.758;4.356;2022-11-10T15:42:18;5.05;;;1.80;;
65096;SDS011;51686;46.758;4.356;2022-11-10T15:45:09;2.85;;;1.63;;
65096;SDS011;51686;46.758;4.356;2022-11-10T15:47:59;5.30;;;1.67;;
65096;SDS011;51686;46.758;4.356;2022-11-10T15:50:52;4.80;;;1.60;;
65096;SDS011;51686;46.758;4.356;2022-11-10T15:53:47;4.28;;;1.67;;
65096;SDS011;51686;46.758;4.356;2022-11-10T15:56:41;3.95;;;1.50;;
65096;SDS011;51686;46.758;4.356;2022-11-10T15:59:32;3.55;;;1.60;;
65096;SDS011;51686;46.758;4.356;2022-11-10T16:02:23;4.68;;;1.85;;
65096;SDS011;51686;46.758;4.356;2022-11-10T16:05:15;3.47;;;1.50;;
65096;SDS011;51686;46.758;4.356;2022-11-10T16:08:18;3.25;;;1.67;;
65096;SDS011;51686;46.758;4.356;2022-11-10T16:11:18;4.60;;;1.70;;
65096;SDS011;51686;46.758;4.356;2022-11-10T16:14:09;4.95;;;1.60;;
65096;SDS011;51686;46.758;4.356;2022-11-10T16:16:59;3.28;;;1.42;;
65096;SDS011;51686;46.758;4.356;2022-11-10T16:19:46;4.25;;;1.70;;
65096;SDS011;51686;46.758;4.356;2022-11-10T16:22:34;2.58;;;1.50;;
65096;SDS011;51686;46.758;4.356;2022-11-10T16:25:21;3.40;;;1.60;;
65096;SDS011;51686;46.758;4.356;2022-11-10T16:28:17;5.22;;;1.90;;
65096;SDS011;51686;46.758;4.356;2022-11-10T16:31:15;3.70;;;1.63;;
65096;SDS011;51686;46.758;4.356;2022-11-10T16:34:13;7.28;;;1.70;;
65096;SDS011;51686;46.758;4.356;2022-11-10T16:37:03;4.28;;;1.67;;
65096;SDS011;51686;46.758;4.356;2022-11-10T16:39:53;4.65;;;1.70;;
65096;SDS011;51686;46.758;4.356;2022-11-10T16:42:43;5.00;;;1.70;;
65096;SDS011;51686;46.758;4.356;2022-11-10T16:45:42;5.57;;;1.63;;
65096;SDS011;51686;46.758;4.356;2022-11-10T16:48:30;4.82;;;1.65;;
65096;SDS011;51686;46.758;4.356;2022-11-10T16:51:26;4.45;;;1.77;;
65096;SDS011;51686;46.758;4.356;2022-11-10T16:54:17;5.82;;;2.17;;
65096;SDS011;51686;46.758;4.356;2022-11-10T16:57:14;4.32;;;1.73;;
65096;SDS011;51686;46.758;4.356;2022-11-10T17:00:01;3.70;;;1.52;;
65096;SDS011;51686;46.758;4.356;2022-11-10T17:02:59;5.53;;;1.80;;
65096;SDS011;51686;46.758;4.356;2022-11-10T17:05:49;2.95;;;1.30;;
65096;SDS011;51686;46.758;4.356;2022-11-10T17:08:35;3.35;;;1.40;;
65096;SDS011;51686;46.758;4.356;2022-11-10T17:11:22;4.20;;;1.60;;
65096;SDS011;51686;46.758;4.356;2022-11-10T17:14:10;4.80;;;1.80;;
65096;SDS011;51686;46.758;4.356;2022-11-10T17:16:57;3.97;;;1.60;;
65096;SDS011;51686;46.758;4.356;2022-11-10T17:19:45;3.65;;;1.50;;
65096;SDS011;51686;46.758;4.356;2022-11-10T17:22:44;3.60;;;1.45;;
65096;SDS011;51686;46.758;4.356;2022-11-10T17:25:34;3.05;;;1.40;;
65096;SDS011;51686;46.758;4.356;2022-11-10T17:28:21;6.88;;;2.08;;
65096;SDS011;51686;46.758;4.356;2022-11-10T17:31:08;4.07;;;1.50;;
65096;SDS011;51686;46.758;4.356;2022-11-10T17:33:55;3.22;;;1.60;;
65096;SDS011;51686;46.758;4.356;2022-11-10T17:36:42;4.72;;;1.70;;
65096;SDS011;51686;46.758;4.356;2022-11-10T17:39:29;4.93;;;1.73;;
65096;SDS011;51686;46.758;4.356;2022-11-10T17:42:17;5.38;;;2.13;;
65096;SDS011;51686;46.758;4.356;2022-11-10T17:48:12;3.55;;;1.70;;
65096;SDS011;51686;46.758;4.356;2022-11-10T17:51:08;5.68;;;2.30;;
65096;SDS011;51686;46.758;4.356;2022-11-10T17:53:59;4.55;;;1.92;;
65096;SDS011;51686;46.758;4.356;2022-11-10T17:56:51;4.13;;;1.80;;
65096;SDS011;51686;46.758;4.356;2022-11-10T17:59:43;5.07;;;2.30;;
65096;SDS011;51686;46.758;4.356;2022-11-10T18:02:50;6.20;;;2.25;;
65096;SDS011;51686;46.758;4.356;2022-11-10T18:05:51;5.47;;;2.30;;
65096;SDS011;51686;46.758;4.356;2022-11-10T18:09:08;5.97;;;2.30;;
65096;SDS011;51686;46.758;4.356;2022-11-10T18:11:55;4.65;;;2.15;;
65096;SDS011;51686;46.758;4.356;2022-11-10T18:14:46;6.32;;;2.17;;
65096;SDS011;51686;46.758;4.356;2022-11-10T18:37:46;10.70;;;5.80;;
65096;SDS011;51686;46.758;4.356;2022-11-10T18:54:00;7.93;;;3.45;;
65096;SDS011;51686;46.758;4.356;2022-11-10T19:24:37;9.48;;;3.45;;
65096;SDS011;51686;46.758;4.356;2022-11-10T19:36:30;8.82;;;4.05;;
65096;SDS011;51686;46.758;4.356;2022-11-10T19:40:26;9.20;;;3.75;;
65096;SDS011;51686;46.758;4.356;2022-11-10T19:43:51;10.65;;;4.90;;
65096;SDS011;51686;46.758;4.356;2022-11-10T19:51:51;10.88;;;5.07;;
65096;SDS011;51686;46.758;4.356;2022-11-10T20:56:07;7.60;;;3.53;;
65096;SDS011;51686;46.758;4.356;2022-11-10T21:12:31;7.55;;;3.78;;
65096;SDS011;51686;46.758;4.356;2022-11-10T21:49:23;7.95;;;3.75;;
65096;SDS011;51686;46.758;4.356;2022-11-10T22:05:00;11.38;;;4.03;;
65096;SDS011;51686;46.758;4.356;2022-11-10T22:21:28;8.93;;;3.70;;
65096;SDS011;51686;46.758;4.356;2022-11-10T22:41:26;7.80;;;3.50;;
65096;SDS011;51686;46.758;4.356;2022-11-10T22:51:21;7.18;;;3.35;;
65096;SDS011;51686;46.758;4.356;2022-11-10T23:12:11;8.32;;;4.03;;
